Time;durP1;ratioP1;P1;durP2;ratioP2;P2;SDS_P1;SDS_P2;PMS_P1;PMS_P2;Temp;Humidity;BMP_temperature;BMP_pressure;BME280_temperature;BME280_humidity;BME280_pressure;Samples;Min_cycle;Max_cycle;Signal;HPM_P1;HPM_P2
2023/12/12 00:02:44;;;;;;;28.83;16.63;;;5.30;99.90;;;;;;5032064;28;20289;-83
2023/12/12 00:05:31;;;;;;;27.90;15.50;;;5.30;99.90;;;;;;5033442;28;20196;-83
2023/12/12 00:08:19;;;;;;;26.40;16.03;;;5.30;99.90;;;;;;5033322;28;20571;-83
2023/12/12 00:11:06;;;;;;;28.00;16.20;;;5.40;99.90;;;;;;5032700;28;20243;-84
2023/12/12 00:13:54;;;;;;;31.30;16.50;;;5.40;99.90;;;;;;5031883;28;20198;-83
2023/12/12 00:16:41;;;;;;;30.27;16.70;;;5.40;99.90;;;;;;5032320;28;20214;-83
2023/12/12 00:19:29;;;;;;;29.37;16.50;;;5.40;99.90;;;;;;5031391;28;20677;-83
2023/12/12 00:22:16;;;;;;;26.23;15.17;;;5.40;99.90;;;;;;5031358;28;20196;-83
2023/12/12 00:25:04;;;;;;;30.17;16.07;;;5.30;99.90;;;;;;5033064;28;20203;-82
2023/12/12 00:27:52;;;;;;;32.97;17.00;;;5.30;99.90;;;;;;5031957;28;20687;-82
2023/12/12 00:30:39;;;;;;;27.13;16.47;;;5.30;99.90;;;;;;5032777;28;20203;-82
2023/12/12 00:33:27;;;;;;;28.63;15.43;;;5.30;99.90;;;;;;5032825;28;20249;-83
2023/12/12 00:36:15;;;;;;;27.97;16.47;;;5.40;99.90;;;;;;5031924;28;20192;-83
2023/12/12 00:39:03;;;;;;;27.40;17.00;;;5.40;99.90;;;;;;5032163;28;20771;-81
2023/12/12 00:41:51;;;;;;;30.30;16.10;;;5.40;99.90;;;;;;5031572;28;20265;-82
2023/12/12 00:44:38;;;;;;;29.60;16.13;;;5.40;99.90;;;;;;5032148;28;20205;-83
2023/12/12 00:47:26;;;;;;;29.80;15.93;;;5.40;99.90;;;;;;5035982;28;20223;-83
2023/12/12 00:50:14;;;;;;;28.67;16.20;;;5.40;99.90;;;;;;5037486;28;20239;-83
2023/12/12 00:53:02;;;;;;;27.73;16.27;;;5.40;99.90;;;;;;5035918;28;20676;-83
2023/12/12 00:55:50;;;;;;;26.83;15.73;;;5.40;99.90;;;;;;5035318;28;20274;-83
2023/12/12 00:58:38;;;;;;;26.93;15.40;;;5.50;99.90;;;;;;5035671;28;20213;-84
2023/12/12 01:01:25;;;;;;;29.60;15.80;;;5.40;99.90;;;;;;5035718;28;20203;-84
2023/12/12 01:04:13;;;;;;;27.50;15.80;;;5.40;99.90;;;;;;5034774;28;20233;-85
2023/12/12 01:07:02;;;;;;;28.63;16.03;;;5.40;99.90;;;;;;5035321;28;20227;-84
2023/12/12 01:09:49;;;;;;;25.93;15.07;;;5.40;99.90;;;;;;5035850;28;20199;-83
2023/12/12 01:12:36;;;;;;;27.57;15.37;;;5.40;99.90;;;;;;5035190;28;20300;-83
2023/12/12 01:15:24;;;;;;;28.03;14.73;;;5.50;99.90;;;;;;5034341;28;20245;-83
2023/12/12 01:18:11;;;;;;;27.77;14.87;;;5.50;99.90;;;;;;5035732;28;20234;-83
2023/12/12 01:21:00;;;;;;;26.60;15.50;;;5.50;99.90;;;;;;5035474;28;20254;-83
2023/12/12 01:23:55;;;;;;;28.27;15.57;;;5.50;99.90;;;;;;5034687;28;20220;-83
2023/12/12 01:26:42;;;;;;;26.33;14.87;;;5.50;99.90;;;;;;5035051;28;20323;-81
2023/12/12 01:29:29;;;;;;;27.17;15.40;;;5.50;99.90;;;;;;5035202;28;20191;-81
2023/12/12 01:32:17;;;;;;;25.40;14.40;;;5.50;99.90;;;;;;5035274;28;20204;-82
2023/12/12 01:35:05;;;;;;;27.13;15.30;;;5.40;99.90;;;;;;5036357;28;20197;-82
2023/12/12 01:37:52;;;;;;;28.90;15.37;;;5.40;99.90;;;;;;5034714;28;20205;-82
2023/12/12 01:40:40;;;;;;;27.47;15.77;;;5.50;99.90;;;;;;5035137;28;20225;-83
2023/12/12 01:43:32;;;;;;;27.37;15.33;;;5.40;99.90;;;;;;5035768;28;20207;-82
2023/12/12 01:46:21;;;;;;;28.07;15.43;;;5.40;99.90;;;;;;5035839;28;20192;-82
2023/12/12 01:49:08;;;;;;;29.73;16.10;;;5.40;99.90;;;;;;5034039;28;20199;-82
2023/12/12 01:51:56;;;;;;;29.37;16.10;;;5.40;99.90;;;;;;5034322;28;20199;-83
2023/12/12 01:54:48;;;;;;;26.00;14.90;;;5.40;99.90;;;;;;5034233;28;20660;-82
2023/12/12 01:57:35;;;;;;;30.83;15.87;;;5.40;99.90;;;;;;5033897;28;20687;-82
2023/12/12 02:00:23;;;;;;;26.57;15.03;;;5.40;99.90;;;;;;5035034;28;20195;-82
2023/12/12 02:03:11;;;;;;;27.97;16.20;;;5.40;99.90;;;;;;5033904;28;20610;-83
2023/12/12 02:06:01;;;;;;;27.90;15.47;;;5.40;99.90;;;;;;5034104;28;20219;-82
2023/12/12 02:08:50;;;;;;;27.87;16.17;;;5.40;99.90;;;;;;5033386;28;20191;-82
2023/12/12 02:11:37;;;;;;;27.53;15.87;;;5.40;99.90;;;;;;5033781;28;20213;-82
2023/12/12 02:14:25;;;;;;;30.10;15.43;;;5.50;99.90;;;;;;5034537;28;20195;-82
2023/12/12 02:17:13;;;;;;;27.73;15.83;;;5.50;99.90;;;;;;5035042;28;20226;-82
2023/12/12 02:20:00;;;;;;;26.47;15.50;;;5.50;99.90;;;;;;5033828;28;20320;-82
2023/12/12 02:22:48;;;;;;;29.87;16.07;;;5.50;99.90;;;;;;5033378;28;20209;-82
2023/12/12 02:25:37;;;;;;;31.27;16.00;;;5.50;99.90;;;;;;5033640;28;20592;-82
2023/12/12 02:28:25;;;;;;;29.73;15.83;;;5.50;99.90;;;;;;5034665;28;20711;-82
2023/12/12 02:31:13;;;;;;;28.87;16.50;;;5.40;99.90;;;;;;5034207;28;20361;-82
2023/12/12 02:34:00;;;;;;;31.33;16.37;;;5.50;99.90;;;;;;5033363;28;20191;-82
2023/12/12 02:36:48;;;;;;;32.93;16.97;;;5.40;99.90;;;;;;5032913;28;20660;-82
2023/12/12 02:39:36;;;;;;;31.17;17.03;;;5.40;99.90;;;;;;5035104;28;20227;-82
2023/12/12 02:42:23;;;;;;;34.37;16.80;;;5.40;99.90;;;;;;5033793;28;20274;-83
2023/12/12 02:45:11;;;;;;;33.63;16.87;;;5.40;99.90;;;;;;5033405;28;20644;-83
2023/12/12 02:48:00;;;;;;;31.53;18.10;;;5.40;99.90;;;;;;5034225;28;20220;-83
2023/12/12 02:50:47;;;;;;;31.20;17.33;;;5.40;99.90;;;;;;5033263;28;20215;-83
2023/12/12 02:53:34;;;;;;;32.97;17.70;;;5.30;99.90;;;;;;5033005;28;20203;-83
2023/12/12 02:56:22;;;;;;;33.43;17.27;;;5.30;99.90;;;;;;5034110;28;20691;-83
2023/12/12 02:59:09;;;;;;;34.63;17.77;;;5.30;99.90;;;;;;5033520;28;20195;-82
2023/12/12 03:01:57;;;;;;;34.33;18.57;;;5.30;99.90;;;;;;5032659;28;20200;-82
2023/12/12 03:04:45;;;;;;;33.67;17.50;;;5.20;99.90;;;;;;5032923;28;20199;-82
2023/12/12 03:07:33;;;;;;;38.43;18.77;;;5.30;99.90;;;;;;5032790;28;20281;-82
2023/12/12 03:10:20;;;;;;;36.50;18.77;;;5.10;99.90;;;;;;5033207;28;20350;-82
2023/12/12 03:13:08;;;;;;;37.50;20.00;;;5.20;99.90;;;;;;5032287;28;20281;-82
2023/12/12 03:15:55;;;;;;;42.30;20.27;;;5.20;99.90;;;;;;5032285;28;20648;-82
2023/12/12 03:18:43;;;;;;;43.67;20.37;;;5.20;99.90;;;;;;5032518;28;20585;-82
2023/12/12 03:21:31;;;;;;;39.67;20.33;;;5.20;99.90;;;;;;5033167;28;20202;-83
2023/12/12 03:24:18;;;;;;;43.63;20.77;;;5.20;99.90;;;;;;5033201;28;20702;-83
2023/12/12 03:27:08;;;;;;;41.10;19.33;;;5.30;99.90;;;;;;5032774;28;20342;-82
2023/12/12 03:29:56;;;;;;;40.67;19.10;;;5.40;99.90;;;;;;5033417;28;20608;-82
2023/12/12 03:32:43;;;;;;;42.77;19.77;;;5.40;99.90;;;;;;5032308;28;20652;-83
2023/12/12 03:35:31;;;;;;;42.17;18.97;;;5.40;99.90;;;;;;5034212;28;20192;-83
2023/12/12 03:38:19;;;;;;;45.30;19.57;;;5.50;99.90;;;;;;5032388;28;20695;-83
2023/12/12 03:41:11;;;;;;;41.47;19.57;;;5.50;99.90;;;;;;5032762;28;20248;-82
2023/12/12 03:43:58;;;;;;;41.27;19.10;;;5.50;99.90;;;;;;5032167;28;20731;-82
2023/12/12 03:46:46;;;;;;;44.47;20.03;;;5.50;99.90;;;;;;5032686;28;20202;-83
2023/12/12 03:49:34;;;;;;;44.03;19.07;;;5.60;99.90;;;;;;5030794;28;20196;-83
2023/12/12 03:52:22;;;;;;;46.10;19.37;;;5.50;99.90;;;;;;5033328;28;20775;-82
2023/12/12 03:55:10;;;;;;;51.03;19.77;;;5.50;99.90;;;;;;5032000;28;20195;-82
2023/12/12 03:57:57;;;;;;;46.60;19.63;;;5.50;99.90;;;;;;5032201;28;20197;-84
2023/12/12 04:00:45;;;;;;;50.33;21.23;;;5.50;99.90;;;;;;5032861;28;20200;-83
2023/12/12 04:03:33;;;;;;;50.20;20.23;;;5.50;99.90;;;;;;5031561;28;20315;-83
2023/12/12 04:06:21;;;;;;;54.73;21.43;;;5.60;99.90;;;;;;5031425;28;20203;-83
2023/12/12 04:09:09;;;;;;;47.90;20.57;;;5.60;99.90;;;;;;5032432;28;20197;-82
2023/12/12 04:11:56;;;;;;;55.17;20.77;;;5.70;99.90;;;;;;5031824;28;20610;-83
2023/12/12 04:14:44;;;;;;;52.40;20.67;;;5.70;99.90;;;;;;5033401;28;20225;-83
2023/12/12 04:17:31;;;;;;;54.17;20.27;;;5.70;99.90;;;;;;5031914;28;20208;-83
2023/12/12 04:20:19;;;;;;;56.50;20.93;;;5.80;99.90;;;;;;5034361;28;20621;-83
2023/12/12 04:23:07;;;;;;;59.37;22.03;;;5.70;99.90;;;;;;5036450;28;20715;-83
2023/12/12 04:25:54;;;;;;;61.33;21.13;;;5.80;99.90;;;;;;5035632;28;20223;-83
2023/12/12 04:28:41;;;;;;;57.47;21.17;;;5.80;99.90;;;;;;5036228;28;20220;-83
2023/12/12 04:31:29;;;;;;;65.80;22.00;;;5.80;99.90;;;;;;5035769;28;20286;-83
2023/12/12 04:34:16;;;;;;;56.53;20.73;;;5.80;99.90;;;;;;5036479;28;20205;-84
2023/12/12 04:37:04;;;;;;;54.50;19.77;;;5.80;99.90;;;;;;5033415;28;20195;-83
2023/12/12 04:39:52;;;;;;;54.33;18.60;;;5.80;99.90;;;;;;5035784;28;20192;-84
2023/12/12 04:42:39;;;;;;;54.57;19.77;;;5.80;99.90;;;;;;5035626;28;20585;-82
2023/12/12 04:45:27;;;;;;;48.37;18.57;;;5.80;99.90;;;;;;5035261;28;20200;-83
2023/12/12 04:48:15;;;;;;;46.50;17.57;;;5.80;99.90;;;;;;5036338;28;20223;-83
2023/12/12 04:51:03;;;;;;;44.07;17.57;;;5.80;99.90;;;;;;5035758;28;20202;-83
2023/12/12 04:53:50;;;;;;;43.93;16.63;;;5.80;99.90;;;;;;5035334;28;20206;-83
2023/12/12 04:56:37;;;;;;;40.17;16.40;;;5.80;99.90;;;;;;5035686;28;20226;-82
2023/12/12 04:59:25;;;;;;;40.23;16.53;;;5.80;99.90;;;;;;5035861;28;20569;-82
2023/12/12 05:02:12;;;;;;;42.83;17.17;;;5.90;99.90;;;;;;5034858;28;20234;-82
2023/12/12 05:04:59;;;;;;;42.60;16.77;;;5.90;99.90;;;;;;5035357;28;20282;-82
2023/12/12 05:07:47;;;;;;;40.27;17.03;;;5.80;99.90;;;;;;5035041;28;20221;-83
2023/12/12 05:10:34;;;;;;;40.57;17.07;;;5.90;99.90;;;;;;5036551;28;20199;-82
2023/12/12 05:13:22;;;;;;;48.30;18.23;;;5.90;99.90;;;;;;5036665;28;20192;-83
2023/12/12 05:16:10;;;;;;;50.77;19.03;;;5.90;99.90;;;;;;5034826;28;20193;-83
2023/12/12 05:19:17;;;;;;;50.80;19.17;;;5.90;99.90;;;;;;5034714;28;20640;-82
2023/12/12 05:22:05;;;;;;;56.27;20.63;;;5.90;99.90;;;;;;5034774;28;20279;-83
2023/12/12 05:24:52;;;;;;;57.07;20.53;;;5.90;99.90;;;;;;5034053;28;20569;-82
2023/12/12 05:27:40;;;;;;;66.83;20.60;;;5.90;99.90;;;;;;5033522;28;20269;-83
2023/12/12 05:30:27;;;;;;;63.37;20.47;;;5.80;99.90;;;;;;5033870;28;20196;-82
2023/12/12 05:33:15;;;;;;;65.07;21.03;;;5.80;99.90;;;;;;5034565;28;20196;-82
2023/12/12 05:36:04;;;;;;;59.00;20.43;;;5.80;99.90;;;;;;5035104;28;20560;-82
2023/12/12 05:38:51;;;;;;;60.70;20.53;;;5.80;99.90;;;;;;5034932;28;20325;-82
2023/12/12 05:41:38;;;;;;;65.30;21.40;;;5.80;99.90;;;;;;5036154;28;20227;-82
2023/12/12 05:44:26;;;;;;;64.33;21.37;;;5.80;99.90;;;;;;5034901;28;20283;-83
2023/12/12 05:47:13;;;;;;;69.00;21.63;;;5.80;99.90;;;;;;5034164;28;20197;-82
2023/12/12 05:50:00;;;;;;;62.23;20.70;;;5.70;99.90;;;;;;5035350;28;20199;-82
2023/12/12 05:52:50;;;;;;;62.57;20.40;;;5.80;99.90;;;;;;5034321;28;20190;-82
2023/12/12 05:55:38;;;;;;;65.60;19.50;;;5.80;99.90;;;;;;5035814;28;20240;-81
2023/12/12 05:58:25;;;;;;;63.27;20.13;;;5.80;99.90;;;;;;5035278;28;20653;-82
2023/12/12 06:01:17;;;;;;;61.07;20.60;;;5.80;99.90;;;;;;5034595;28;20568;-83
2023/12/12 06:04:07;;;;;;;61.83;20.37;;;5.80;99.90;;;;;;5035257;28;20688;-82
2023/12/12 06:06:54;;;;;;;66.27;19.10;;;5.80;99.90;;;;;;5033438;28;20203;-82
2023/12/12 06:09:42;;;;;;;59.97;18.80;;;5.80;99.90;;;;;;5033787;28;20188;-82
2023/12/12 06:12:29;;;;;;;53.47;18.30;;;5.80;99.90;;;;;;5034547;28;20219;-82
2023/12/12 06:15:16;;;;;;;49.43;19.03;;;5.90;99.90;;;;;;5034926;28;20774;-82
2023/12/12 06:18:04;;;;;;;48.03;17.27;;;5.90;99.90;;;;;;5033078;28;20686;-81
2023/12/12 06:20:52;;;;;;;48.23;17.70;;;6.00;99.90;;;;;;5033955;28;20206;-82
2023/12/12 06:23:39;;;;;;;42.77;16.13;;;5.90;99.90;;;;;;5033805;28;20209;-82
2023/12/12 06:26:27;;;;;;;42.30;16.37;;;5.90;99.90;;;;;;5035320;28;20426;-82
2023/12/12 06:29:15;;;;;;;40.27;16.43;;;5.90;99.90;;;;;;5033746;28;20225;-81
2023/12/12 06:32:02;;;;;;;42.23;16.00;;;5.90;99.90;;;;;;5034080;28;20205;-81
2023/12/12 06:34:50;;;;;;;41.90;16.17;;;5.90;99.90;;;;;;5033857;28;20218;-82
2023/12/12 06:37:38;;;;;;;39.20;16.07;;;6.00;99.90;;;;;;5033699;28;20648;-82
2023/12/12 06:40:25;;;;;;;46.40;16.50;;;5.90;99.90;;;;;;5034032;28;20250;-82
2023/12/12 06:43:13;;;;;;;49.33;17.90;;;6.00;99.90;;;;;;5032750;28;20200;-82
2023/12/12 06:46:00;;;;;;;42.37;15.87;;;6.00;99.90;;;;;;5033228;28;20204;-82
2023/12/12 06:48:48;;;;;;;52.47;18.30;;;6.00;99.90;;;;;;5033256;28;20215;-82
2023/12/12 06:51:35;;;;;;;47.77;17.50;;;5.90;99.90;;;;;;5034314;28;20188;-82
2023/12/12 06:54:23;;;;;;;55.67;18.70;;;5.90;99.90;;;;;;5033246;28;20221;-82
2023/12/12 06:57:10;;;;;;;60.60;20.63;;;5.90;99.90;;;;;;5033131;28;20277;-81
2023/12/12 06:59:58;;;;;;;56.20;19.53;;;6.00;99.90;;;;;;5033020;28;20519;-82
2023/12/12 07:02:46;;;;;;;55.20;19.27;;;6.10;99.90;;;;;;5032984;28;20720;-84
2023/12/12 07:05:33;;;;;;;68.53;20.40;;;6.10;99.90;;;;;;5033117;28;20234;-83
2023/12/12 07:08:21;;;;;;;56.37;19.17;;;6.00;99.90;;;;;;5033270;28;20227;-82
2023/12/12 07:11:08;;;;;;;60.73;20.47;;;6.00;99.90;;;;;;5032699;28;20216;-82
2023/12/12 07:13:56;;;;;;;77.73;21.00;;;6.00;99.90;;;;;;5032496;28;20195;-82
2023/12/12 07:16:43;;;;;;;73.90;21.57;;;5.90;99.90;;;;;;5035533;28;20227;-82
2023/12/12 07:19:31;;;;;;;67.10;20.73;;;6.00;99.90;;;;;;5033540;28;20213;-81
2023/12/12 07:22:19;;;;;;;63.97;21.60;;;6.00;99.90;;;;;;5035571;28;20195;-81
2023/12/12 07:25:08;;;;;;;71.80;22.30;;;6.00;99.90;;;;;;5032730;28;20255;-82
2023/12/12 07:27:55;;;;;;;69.30;22.00;;;5.90;99.90;;;;;;5033328;28;20716;-83
2023/12/12 07:30:43;;;;;;;82.17;22.00;;;5.90;99.90;;;;;;5031760;28;20214;-82
2023/12/12 07:33:30;;;;;;;62.97;21.73;;;6.00;99.90;;;;;;5033352;28;20193;-82
2023/12/12 07:36:18;;;;;;;63.03;21.23;;;6.00;99.90;;;;;;5033432;28;20613;-83
2023/12/12 07:39:06;;;;;;;71.57;21.17;;;6.00;99.90;;;;;;5031875;28;20210;-82
2023/12/12 07:41:53;;;;;;;61.90;20.97;;;5.90;99.90;;;;;;5030963;28;20207;-83
2023/12/12 07:44:40;;;;;;;57.23;20.23;;;6.10;99.90;;;;;;5032577;28;20465;-82
2023/12/12 07:47:27;;;;;;;64.37;20.80;;;6.10;99.90;;;;;;5032629;28;20229;-82
2023/12/12 07:50:26;;;;;;;51.70;19.07;;;6.10;99.90;;;;;;5032435;28;20213;-82
2023/12/12 07:53:14;;;;;;;52.27;19.73;;;6.10;99.90;;;;;;5033288;28;20325;-82
2023/12/12 07:56:01;;;;;;;52.23;20.37;;;6.10;99.90;;;;;;5031334;28;20218;-82
2023/12/12 07:58:49;;;;;;;52.13;19.30;;;6.20;99.90;;;;;;5030797;28;20337;-81
2023/12/12 08:01:37;;;;;;;50.67;19.73;;;6.30;99.90;;;;;;5032654;28;20207;-81
2023/12/12 08:04:25;;;;;;;52.33;19.30;;;6.10;99.90;;;;;;5031376;28;20208;-81
2023/12/12 08:07:13;;;;;;;53.97;20.37;;;6.20;99.90;;;;;;5033228;28;20206;-82
2023/12/12 08:10:01;;;;;;;47.13;18.23;;;6.20;99.90;;;;;;5032720;28;20220;-81
2023/12/12 08:12:49;;;;;;;48.17;18.77;;;6.10;99.90;;;;;;5030622;28;20200;-82
2023/12/12 08:15:37;;;;;;;55.23;19.87;;;6.10;99.90;;;;;;5030579;28;20254;-82
2023/12/12 08:18:25;;;;;;;59.07;20.33;;;6.00;99.90;;;;;;5030607;28;20729;-80
2023/12/12 08:21:13;;;;;;;51.77;19.37;;;6.10;99.90;;;;;;5031017;28;20191;-83
2023/12/12 08:24:03;;;;;;;55.40;20.07;;;6.10;99.90;;;;;;5030555;28;20204;-79
2023/12/12 08:26:50;;;;;;;56.97;20.13;;;6.10;99.90;;;;;;5030999;28;20339;-79
2023/12/12 08:29:38;;;;;;;59.67;20.53;;;6.20;99.90;;;;;;5031787;28;20221;-80
2023/12/12 08:32:26;;;;;;;60.83;20.70;;;6.10;99.90;;;;;;5030557;28;20196;-80
2023/12/12 08:35:14;;;;;;;56.93;21.17;;;6.10;99.90;;;;;;5032074;28;20195;-80
2023/12/12 08:38:02;;;;;;;57.87;21.50;;;6.10;99.90;;;;;;5031562;28;20285;-80
2023/12/12 08:40:49;;;;;;;55.47;20.27;;;6.00;99.90;;;;;;5032620;28;20299;-79
2023/12/12 08:43:38;;;;;;;60.17;21.13;;;6.10;99.90;;;;;;5032215;28;20265;-78
2023/12/12 08:46:27;;;;;;;55.20;20.10;;;6.20;99.90;;;;;;5031302;28;20192;-80
2023/12/12 08:49:17;;;;;;;55.30;20.17;;;6.20;99.90;;;;;;5032017;28;20219;-79
2023/12/12 08:52:06;;;;;;;53.40;19.97;;;6.10;99.90;;;;;;5031284;28;20205;-79
2023/12/12 08:54:54;;;;;;;48.80;17.37;;;6.10;99.90;;;;;;5031029;28;20318;-79
2023/12/12 08:57:42;;;;;;;41.10;16.87;;;6.10;99.90;;;;;;5031039;28;20286;-79
2023/12/12 09:00:29;;;;;;;42.03;17.13;;;6.10;99.90;;;;;;5031922;28;20245;-80
2023/12/12 09:03:17;;;;;;;54.93;18.60;;;6.10;99.90;;;;;;5031118;28;20218;-80
2023/12/12 09:06:05;;;;;;;41.53;16.57;;;6.20;99.90;;;;;;5031883;28;20665;-80
2023/12/12 09:08:53;;;;;;;40.77;15.80;;;6.20;99.90;;;;;;5035378;28;20228;-81
2023/12/12 09:11:41;;;;;;;38.00;16.97;;;6.30;99.90;;;;;;5034996;28;20475;-80
2023/12/12 09:14:28;;;;;;;37.80;15.33;;;6.30;99.90;;;;;;5034645;28;20307;-80
2023/12/12 09:17:15;;;;;;;39.00;15.83;;;6.30;99.90;;;;;;5035285;28;20191;-81
2023/12/12 09:20:03;;;;;;;43.27;16.40;;;6.20;99.90;;;;;;5034484;28;20652;-81
2023/12/12 09:22:51;;;;;;;37.17;14.13;;;6.20;99.90;;;;;;5035194;28;20580;-81
2023/12/12 09:25:39;;;;;;;29.70;13.30;;;6.30;99.90;;;;;;5034070;28;20779;-82
2023/12/12 09:28:27;;;;;;;31.70;14.17;;;6.30;99.90;;;;;;5034478;28;20710;-81
2023/12/12 09:31:23;;;;;;;26.90;13.33;;;6.10;99.90;;;;;;5034754;28;20201;-82
2023/12/12 09:34:12;;;;;;;24.77;12.20;;;6.20;99.90;;;;;;5034023;28;20275;-81
2023/12/12 09:37:00;;;;;;;26.90;12.57;;;6.10;99.90;;;;;;5034888;28;20192;-80
2023/12/12 09:39:47;;;;;;;28.53;12.57;;;6.10;99.90;;;;;;5033437;28;20190;-81
2023/12/12 09:42:35;;;;;;;25.90;13.03;;;6.10;99.90;;;;;;5034832;28;20218;-81
2023/12/12 09:45:25;;;;;;;29.13;13.40;;;6.00;99.90;;;;;;5034989;28;20200;-81
2023/12/12 09:48:14;;;;;;;27.97;12.93;;;6.20;99.90;;;;;;5033387;28;20287;-80
2023/12/12 09:51:03;;;;;;;29.93;13.33;;;6.10;99.90;;;;;;5033353;28;20616;-81
2023/12/12 09:53:54;;;;;;;30.00;13.27;;;6.00;99.90;;;;;;5035235;28;20200;-81
2023/12/12 09:56:41;;;;;;;27.27;12.63;;;5.90;99.90;;;;;;5033702;28;20676;-80
2023/12/12 09:59:29;;;;;;;28.27;13.53;;;5.90;99.90;;;;;;5033655;28;20202;-80
2023/12/12 10:02:22;;;;;;;31.20;13.93;;;5.90;99.90;;;;;;5034336;28;20282;-80
2023/12/12 10:05:12;;;;;;;37.63;13.67;;;5.90;99.90;;;;;;5034118;28;20203;-80
2023/12/12 10:08:03;;;;;;;53.37;16.50;;;5.80;99.90;;;;;;5034520;28;20573;-80
2023/12/12 10:11:04;;;;;;;30.13;14.30;;;5.90;99.90;;;;;;5034610;28;20220;-81
2023/12/12 10:13:56;;;;;;;31.57;14.67;;;5.70;99.90;;;;;;5035071;28;20293;-86
2023/12/12 10:16:46;;;;;;;32.17;14.67;;;5.70;99.90;;;;;;5033135;28;20652;-83
2023/12/12 10:19:33;;;;;;;39.73;15.77;;;5.70;99.90;;;;;;5033283;28;20193;-80
2023/12/12 10:22:21;;;;;;;36.70;15.10;;;5.80;99.90;;;;;;5034266;28;20210;-80
2023/12/12 10:25:14;;;;;;;36.03;14.47;;;5.70;99.90;;;;;;5033668;28;20196;-80
2023/12/12 10:28:02;;;;;;;39.77;16.33;;;5.90;99.90;;;;;;5033427;28;20208;-80
2023/12/12 10:30:53;;;;;;;29.10;13.37;;;5.90;99.90;;;;;;5033671;28;20272;-80
2023/12/12 10:33:41;;;;;;;28.40;13.33;;;5.80;99.90;;;;;;5033350;28;20208;-80
2023/12/12 10:36:28;;;;;;;22.87;11.80;;;5.80;99.90;;;;;;5032312;28;20321;-80
2023/12/12 10:39:16;;;;;;;25.57;11.73;;;5.80;99.90;;;;;;5033842;28;20212;-80
2023/12/12 10:42:05;;;;;;;25.83;11.83;;;5.70;99.90;;;;;;5032726;28;20222;-80
2023/12/12 10:44:56;;;;;;;20.40;10.60;;;5.80;99.90;;;;;;5033715;28;20199;-82
2023/12/12 10:47:50;;;;;;;19.33;10.57;;;5.80;99.90;;;;;;5032172;28;20197;-83
2023/12/12 10:50:45;;;;;;;22.20;10.60;;;5.80;99.90;;;;;;5034099;28;20223;-83
2023/12/12 10:53:35;;;;;;;17.83;9.30;;;5.80;99.90;;;;;;5032811;28;20677;-82
2023/12/12 10:56:23;;;;;;;13.97;7.57;;;5.70;99.90;;;;;;5032139;28;20225;-81
2023/12/12 10:59:11;;;;;;;15.73;7.63;;;5.70;99.90;;;;;;5033679;28;20307;-82
2023/12/12 11:02:20;;;;;;;14.10;6.73;;;5.60;99.90;;;;;;5033480;28;20269;-82
2023/12/12 11:05:13;;;;;;;13.03;6.17;;;5.70;99.90;;;;;;5034948;28;20201;-85
2023/12/12 11:08:03;;;;;;;11.57;6.77;;;5.70;99.90;;;;;;5035106;28;20200;-87
2023/12/12 11:10:52;;;;;;;13.17;6.93;;;5.60;99.90;;;;;;5033840;28;20215;-84
2023/12/12 11:13:42;;;;;;;12.40;7.00;;;5.60;99.90;;;;;;5032539;28;20655;-83
2023/12/12 11:16:31;;;;;;;17.03;7.67;;;5.60;99.90;;;;;;5033438;28;20205;-81
2023/12/12 11:19:19;;;;;;;11.77;7.20;;;5.50;99.90;;;;;;5034256;28;20219;-85
2023/12/12 11:22:07;;;;;;;10.97;6.97;;;5.40;99.90;;;;;;5032839;28;20201;-83
2023/12/12 11:25:11;;;;;;;10.80;6.40;;;5.10;99.90;;;;;;5032912;28;20564;-83
2023/12/12 11:27:58;;;;;;;9.97;5.67;;;5.00;99.90;;;;;;5033648;28;20191;-83
2023/12/12 11:30:47;;;;;;;11.63;6.13;;;4.90;99.90;;;;;;5033167;28;20216;-89
2023/12/12 11:34:08;;;;;;;13.90;7.03;;;4.80;99.90;;;;;;5033253;28;20571;-90
2023/12/12 11:37:01;;;;;;;15.73;8.17;;;4.60;99.90;;;;;;5033772;28;20200;-90
2023/12/12 11:39:51;;;;;;;15.80;8.67;;;4.40;99.90;;;;;;5036343;28;20207;-88
2023/12/12 11:42:42;;;;;;;17.47;9.50;;;4.30;99.90;;;;;;5034540;28;20258;-88
2023/12/12 11:45:31;;;;;;;17.33;9.40;;;4.20;99.90;;;;;;5036442;28;20282;-89
2023/12/12 11:48:19;;;;;;;17.43;9.80;;;4.10;99.90;;;;;;5032763;28;20195;-82
2023/12/12 11:51:34;;;;;;;24.23;9.97;;;4.00;99.90;;;;;;5033146;28;20323;-84
2023/12/12 11:54:23;;;;;;;18.17;9.30;;;4.00;99.90;;;;;;5032916;28;20200;-84
2023/12/12 11:57:10;;;;;;;18.30;8.90;;;3.80;99.90;;;;;;5032847;28;20211;-85
2023/12/12 12:00:02;;;;;;;20.13;9.50;;;3.70;99.90;;;;;;5032973;28;20223;-83
2023/12/12 12:02:49;;;;;;;17.90;9.03;;;3.60;99.90;;;;;;5032047;28;20594;-85
2023/12/12 12:05:37;;;;;;;21.50;10.07;;;3.50;99.90;;;;;;5032915;28;20212;-84
2023/12/12 12:08:25;;;;;;;22.90;11.00;;;3.40;99.90;;;;;;5030499;28;20199;-84
2023/12/12 12:11:13;;;;;;;22.53;11.10;;;3.60;99.90;;;;;;5033559;28;20220;-86
2023/12/12 12:14:00;;;;;;;21.73;10.97;;;3.50;99.90;;;;;;5032221;28;20210;-84
2023/12/12 12:16:55;;;;;;;22.83;10.93;;;3.50;99.90;;;;;;5032798;28;20233;-83
2023/12/12 12:19:42;;;;;;;24.27;10.53;;;3.50;99.90;;;;;;5032456;28;20585;-84
2023/12/12 12:22:36;;;;;;;24.90;10.63;;;3.50;99.90;;;;;;5032611;28;20543;-85
2023/12/12 12:25:26;;;;;;;20.70;8.93;;;3.60;99.90;;;;;;5032272;28;20207;-86
2023/12/12 12:28:15;;;;;;;26.03;8.90;;;3.50;99.90;;;;;;5031926;28;20193;-85
2023/12/12 12:31:04;;;;;;;17.87;8.80;;;3.50;99.90;;;;;;5031640;28;20585;-85
2023/12/12 12:33:53;;;;;;;19.30;8.77;;;3.50;99.90;;;;;;5030409;28;20660;-85
2023/12/12 12:36:42;;;;;;;21.93;9.13;;;3.40;99.90;;;;;;5031545;28;20196;-86
2023/12/12 12:39:29;;;;;;;27.77;9.60;;;3.40;99.90;;;;;;5031082;28;20198;-84
2023/12/12 12:42:17;;;;;;;23.20;8.67;;;3.40;99.90;;;;;;5036409;28;20754;-84
2023/12/12 12:45:06;;;;;;;17.63;8.83;;;3.30;99.90;;;;;;5035508;28;20214;-84
2023/12/12 12:47:54;;;;;;;22.37;9.00;;;3.50;99.90;;;;;;5035494;28;20230;-82
2023/12/12 12:50:47;;;;;;;18.03;9.17;;;3.60;99.90;;;;;;5035824;28;20593;-83
2023/12/12 12:53:35;;;;;;;20.83;8.90;;;3.60;99.90;;;;;;5036873;28;20202;-85
2023/12/12 12:56:25;;;;;;;19.70;9.57;;;3.60;99.90;;;;;;5035793;28;20226;-85
2023/12/12 12:59:18;;;;;;;23.90;10.20;;;3.70;99.90;;;;;;5036161;28;20198;-86
2023/12/12 13:02:07;;;;;;;22.17;9.57;;;3.80;99.90;;;;;;5034269;28;20202;-86
2023/12/12 13:04:55;;;;;;;20.60;9.40;;;3.80;99.90;;;;;;5036707;28;20273;-86
2023/12/12 13:07:43;;;;;;;19.83;10.37;;;3.80;99.90;;;;;;5034981;28;20198;-87
2023/12/12 13:10:31;;;;;;;23.40;11.37;;;3.70;99.90;;;;;;5034550;28;20761;-85
2023/12/12 13:13:33;;;;;;;25.90;11.33;;;3.60;99.90;;;;;;5036070;28;20208;-85
2023/12/12 13:16:21;;;;;;;26.00;12.43;;;3.70;99.90;;;;;;5035749;28;20201;-84
2023/12/12 13:19:11;;;;;;;26.83;11.70;;;3.80;99.90;;;;;;5035001;28;20199;-85
2023/12/12 13:21:59;;;;;;;27.57;11.73;;;3.70;99.90;;;;;;5035052;28;20197;-85
2023/12/12 13:24:49;;;;;;;27.60;12.30;;;3.80;99.90;;;;;;5035573;28;20283;-87
2023/12/12 13:27:37;;;;;;;30.60;13.47;;;3.80;99.90;;;;;;5034275;28;20219;-87
2023/12/12 13:30:26;;;;;;;31.83;13.50;;;3.80;99.90;;;;;;5034675;28;20234;-86
2023/12/12 13:33:14;;;;;;;33.23;13.13;;;3.70;99.90;;;;;;5037351;28;20233;-86
2023/12/12 13:36:04;;;;;;;35.63;14.00;;;3.70;99.90;;;;;;5035481;28;20193;-86
2023/12/12 13:38:55;;;;;;;37.40;14.43;;;3.70;99.90;;;;;;5037975;28;20568;-87
2023/12/12 13:41:45;;;;;;;39.50;15.37;;;3.80;99.90;;;;;;5033639;28;20217;-86
2023/12/12 13:44:32;;;;;;;38.23;16.07;;;3.80;99.90;;;;;;5035516;28;20656;-87
2023/12/12 13:47:20;;;;;;;40.53;16.03;;;3.70;99.90;;;;;;5035322;28;20200;-87
2023/12/12 13:50:08;;;;;;;37.00;15.07;;;3.80;99.90;;;;;;5036275;28;20231;-87
2023/12/12 13:52:55;;;;;;;39.97;16.40;;;3.80;99.90;;;;;;5035598;28;20202;-86
2023/12/12 13:55:43;;;;;;;47.07;19.20;;;3.80;99.90;;;;;;5034451;28;20566;-86
2023/12/12 13:58:30;;;;;;;48.97;19.67;;;3.70;99.90;;;;;;5034574;28;20202;-86
2023/12/12 14:01:17;;;;;;;49.80;19.97;;;3.80;99.90;;;;;;5035729;28;20188;-86
2023/12/12 14:04:06;;;;;;;46.80;19.70;;;3.80;99.90;;;;;;5035383;28;20238;-86
2023/12/12 14:06:53;;;;;;;49.80;19.23;;;3.80;99.90;;;;;;5033587;28;20206;-86
2023/12/12 14:09:41;;;;;;;45.23;18.30;;;3.70;99.90;;;;;;5034927;28;20219;-86
2023/12/12 14:12:29;;;;;;;51.60;19.70;;;3.80;99.90;;;;;;5033549;28;20222;-85
2023/12/12 14:15:17;;;;;;;54.70;20.13;;;3.80;99.90;;;;;;5034054;28;20202;-86
2023/12/12 14:18:05;;;;;;;52.33;19.50;;;3.90;99.90;;;;;;5034922;28;20197;-86
2023/12/12 14:20:52;;;;;;;54.50;20.87;;;3.90;99.90;;;;;;5032881;28;20191;-86
2023/12/12 14:23:42;;;;;;;49.40;18.53;;;3.90;99.90;;;;;;5033672;28;20199;-85
2023/12/12 14:26:30;;;;;;;54.07;20.67;;;3.90;99.90;;;;;;5033761;28;20215;-86
2023/12/12 14:29:18;;;;;;;52.97;20.53;;;3.80;99.90;;;;;;5032483;28;20669;-84